Flight Track Log - Related Links

Times and Time Zones

All times are in EDT time to prevent confusion due to time zone crossing. See the CTL17 flight status page for this flight to view local times or setup timezone preferences in your user account.

Time Position Orientation Groundspeed Altitude Reporting Facility
EDT Latitude Longitude Course Direction KTS MPH feet Rate Location/Type
Mon 05:31:42 PM 42.2572 -83.5486 300° West 144 166 1,700  Level Cleveland Center
Mon 05:33:00 PM 42.2371 -83.4829 113° Southeast  Level FlightAware Approximate
Mon 05:33:45 PM 42.2656 -83.6333 113° Southeast 138 159 3,900  Level Cleveland Center
Mon 05:35:00 PM 42.2509 -83.5679 107° East  Level FlightAware Approximate
Mon 05:35:47 PM 42.2300 -83.5503 107° East 134 154 5,100  Level Cleveland Center
Mon 05:36:48 PM 42.2106 -83.4958 116° Southeast 166 191 5,000  Descending Cleveland Center
Mon 05:38:00 PM 42.2156 -83.4306 84° East  Level FlightAware Approximate
Mon 05:38:48 PM 42.1697 -83.3819 84° East 162 186 5,100  Level Cleveland Center
Mon 05:39:49 PM 42.1500 -83.3308 117° Southeast 164 189 5,100  Level Cleveland Center
Mon 05:40:49 PM 42.1283 -83.2767 118° Southeast 163 188 5,100 50 Level Cleveland Center
Mon 05:41:50 PM 42.1069 -83.2197 117° Southeast 164 189 5,200  Climbing Cleveland Center
Mon 05:42:58 PM 42.0831 -83.1600 118° Southeast 162 186 5,100 -33 Descending Cleveland Center
Mon 05:44:00 PM 42.0832 -83.1036 90° East  Level FlightAware Approximate
Mon 05:44:52 PM 42.0436 -83.0578 90° East 162 186 5,100  Level Cleveland Center
Mon 05:45:54 PM 42.0239 -83.0067 117° Southeast 160 184 5,100  Level Cleveland Center
Mon 05:46:55 PM 42.0042 -82.9528 116° Southeast 163 188 5,100  Level Cleveland Center
Mon 05:47:58 PM 41.9825 -82.8933 116° Southeast 160 184 5,100  Level Cleveland Center
Mon 05:49:00 PM 41.9636 -82.8431 117° Southeast  Level Estimated
Mon 05:49:26 PM 41.9464 -82.8222 117° Southeast 162 186 5,100  Level Cleveland Center
Mon 05:50:33 PM 41.9225 -82.7628 118° Southeast 159 183 5,100  Level Cleveland Center
Mon 05:51:27 PM 41.9047 -82.7119 115° Southeast 160 184 5,100  Level Cleveland Center
Mon 05:52:35 PM 41.8786 -82.6581 123° Southeast 161 185 5,100 -56 Level Cleveland Center
Mon 05:54:00 PM 41.8534 -82.5889 116° Southeast  Level Estimated
Mon 05:58:38 PM 41.7528 -82.3367 116° Southeast 165 190 4,700  Level Cleveland Center
Mon 05:59:38 PM 41.7306 -82.2831 119° Southeast 169 194 4,300 -429 Descending Cleveland Center
Mon 06:01:00 PM 41.7282 -82.2479 116° Southeast  Level Estimated
Mon 06:01:00 PM 41.7070 -82.2160 115° Southeast  Level Estimated
Mon 06:01:40 PM 41.6819 -82.1761 115° Southeast 170 196 3,400  Level Cleveland Center
Mon 06:02:00 PM 41.7102 -82.1993 116° Southeast  Level Estimated
Mon 06:02:46 PM 41.6578 -82.1117 117° Southeast 169 194 3,000  Level Cleveland Center
Mon 06:03:00 PM 41.6922 -82.1508 116° Southeast  Level Estimated
Mon 06:03:49 PM 41.6356 -82.0583 119° Southeast 165 190 2,700  Level Cleveland Center
Mon 06:04:00 PM 41.6742 -82.1022 116° Southeast  Level Estimated
Mon 06:04:50 PM 41.6133 -82.0050 119° Southeast 163 188 2,400  Level Cleveland Center
Mon 06:06:00 PM 41.6179 -81.9447 118° Southeast  Level FlightAware Approximate
Mon 06:07:45 PM 41.5506 -81.8511 108° East 155 178 1,700  Level Cleveland Center
Mon 06:08:46 PM 41.5322 -81.8064 119° Southeast 148 170 1,600 -98 Descending Cleveland Center
Mon 06:13:00 PM 41.5175 -81.6833 108° East  Level Estimated

Login

Don't have an account? Register now (free) for customized features, flight alerts, and more!